Time;durP1;ratioP1;P1;durP2;ratioP2;P2;SDS_P1;SDS_P2;PMS_P1;PMS_P2;Temp;Humidity;BMP_temperature;BMP_pressure;BME280_temperature;BME280_humidity;BME280_pressure;Samples;Min_cycle;Max_cycle;Signal;HPM_P1;HPM_P2
2022/11/23 00:00:28;;;;;;;10.18;1.98;;;;;;;17.79;100.00;101091.09;2120142;27;20140;-73
2022/11/23 00:01:51;;;;;;;11.25;1.88;;;;;;;17.79;100.00;101090.22;2127941;27;20383;-73
2022/11/23 00:03:14;;;;;;;4.82;0.90;;;;;;;17.77;100.00;101086.69;2126991;27;20450;-73
2022/11/23 00:04:37;;;;;;;7.05;1.05;;;;;;;17.75;100.00;101078.69;2127509;27;20600;-73
2022/11/23 00:06:01;;;;;;;5.50;1.30;;;;;;;17.76;100.00;101074.22;2127121;27;20459;-73
2022/11/23 00:07:24;;;;;;;5.72;0.70;;;;;;;17.77;100.00;101076.91;2127580;27;20042;-74
2022/11/23 00:08:45;;;;;;;9.38;1.40;;;;;;;17.79;100.00;101067.06;2127557;27;20054;-73
2022/11/23 00:10:08;;;;;;;9.57;1.40;;;;;;;17.84;100.00;101070.59;2125045;27;20046;-74
2022/11/23 00:11:31;;;;;;;8.05;1.30;;;;;;;17.89;100.00;101082.13;2127347;27;20045;-74
2022/11/23 00:12:53;;;;;;;5.95;1.17;;;;;;;17.92;100.00;101082.06;2126371;27;20494;-73
2022/11/23 00:14:15;;;;;;;7.63;0.80;;;;;;;17.96;100.00;101095.41;2127188;27;20043;-73
2022/11/23 00:15:39;;;;;;;10.65;2.33;;;;;;;18.00;100.00;101095.38;2122720;27;20054;-74
2022/11/23 00:17:02;;;;;;;9.05;1.50;;;;;;;18.03;100.00;101100.69;2121057;27;20406;-73
2022/11/23 00:18:25;;;;;;;4.18;1.02;;;;;;;18.07;100.00;101107.75;2110642;28;20044;-73
2022/11/23 00:19:47;;;;;;;5.15;1.27;;;;;;;18.12;100.00;101103.25;2116177;27;20039;-74
2022/11/23 00:21:11;;;;;;;9.98;1.60;;;;;;;18.16;100.00;101107.69;2119305;27;20137;-74
2022/11/23 00:22:34;;;;;;;11.05;2.80;;;;;;;18.18;100.00;101108.53;2126770;27;20399;-74
2022/11/23 00:23:57;;;;;;;9.88;2.15;;;;;;;18.19;100.00;101121.00;2125154;27;20039;-73
2022/11/23 00:25:19;;;;;;;11.65;2.72;;;;;;;18.20;100.00;101116.53;2126459;27;20122;-73
2022/11/23 00:26:42;;;;;;;9.13;1.83;;;;;;;18.22;100.00;101112.09;2119016;28;20047;-74
2022/11/23 00:28:03;;;;;;;13.52;2.42;;;;;;;18.24;100.00;101108.50;2129930;27;20131;-73
2022/11/23 00:29:29;;;;;;;10.32;1.85;;;;;;;18.26;100.00;101113.81;2121619;28;20124;-74
2022/11/23 00:30:50;;;;;;;12.75;2.72;;;;;;;18.26;100.00;101104.00;2122674;27;20067;-74
2022/11/23 00:32:13;;;;;;;10.55;2.38;;;;;;;18.27;100.00;101111.13;2134410;27;20557;-73
2022/11/23 00:33:37;;;;;;;12.77;2.75;;;;;;;18.29;100.00;101111.13;2130233;27;20427;-73
2022/11/23 00:35:00;;;;;;;11.00;2.05;;;;;;;18.29;100.00;101103.09;2119396;28;20054;-73
2022/11/23 00:36:23;;;;;;;14.15;2.80;;;;;;;18.28;100.00;101102.22;2127141;27;20106;-73
2022/11/23 00:37:45;;;;;;;6.55;1.50;;;;;;;18.29;100.00;101112.00;2127646;27;20133;-73
2022/11/23 00:39:08;;;;;;;19.65;2.47;;;;;;;18.28;100.00;101107.56;2127497;27;20577;-73
2022/11/23 00:40:30;;;;;;;8.82;1.52;;;;;;;18.27;100.00;101097.75;2120214;28;20179;-73
2022/11/23 00:41:53;;;;;;;10.52;2.08;;;;;;;18.25;100.00;101107.56;2121763;28;20410;-73
2022/11/23 00:43:14;;;;;;;14.35;2.83;;;;;;;18.23;100.00;101106.72;2118720;28;20043;-72
2022/11/23 00:44:37;;;;;;;6.57;2.05;;;;;;;18.21;100.00;101103.19;2127158;27;20054;-73
2022/11/23 00:46:05;;;;;;;15.35;1.90;;;;;;;18.19;100.00;101094.28;2113193;28;20058;-73
2022/11/23 00:47:27;;;;;;;6.70;1.50;;;;;;;18.16;100.00;101098.78;2110502;28;20040;-74
2022/11/23 00:48:53;;;;;;;9.75;2.30;;;;;;;18.12;100.00;101094.34;2109104;28;20559;-73
2022/11/23 00:50:16;;;;;;;11.98;2.45;;;;;;;18.10;100.00;101104.19;2121227;27;20126;-74
2022/11/23 00:51:39;;;;;;;9.88;2.30;;;;;;;18.07;100.00;101097.06;2137623;27;20051;-73
2022/11/23 00:53:02;;;;;;;6.13;1.30;;;;;;;18.07;100.00;101101.53;2131931;27;20051;-73
2022/11/23 00:54:25;;;;;;;6.43;1.40;;;;;;;18.08;100.00;101103.31;2120541;27;20050;-73
2022/11/23 00:55:50;;;;;;;5.28;1.38;;;;;;;18.08;100.00;101103.31;2126596;27;20046;-72
2022/11/23 00:57:13;;;;;;;6.70;1.10;;;;;;;18.09;100.00;101100.63;2131370;27;20099;-72
2022/11/23 00:58:37;;;;;;;7.40;1.20;;;;;;;18.10;100.00;101099.72;2125880;27;20054;-72
2022/11/23 00:59:59;;;;;;;8.13;1.42;;;;;;;18.12;100.00;101111.28;2120675;27;20065;-73
2022/11/23 01:01:24;;;;;;;8.35;1.73;;;;;;;18.14;100.00;101109.47;2118633;27;20799;-73
2022/11/23 01:02:48;;;;;;;7.13;2.40;;;;;;;18.16;100.00;101110.38;2127336;27;20055;-72
2022/11/23 01:04:12;;;;;;;8.23;1.77;;;;;;;18.18;100.00;101102.34;2122956;27;20047;-72
2022/11/23 01:05:36;;;;;;;14.23;2.20;;;;;;;18.19;100.00;101107.63;2120876;27;20074;-73
2022/11/23 01:06:58;;;;;;;12.98;2.50;;;;;;;18.22;100.00;101104.06;2120662;27;20056;-73
2022/11/23 01:08:20;;;;;;;9.73;1.88;;;;;;;18.22;100.00;101107.63;2137662;27;20046;-73
2022/11/23 01:09:42;;;;;;;8.35;2.05;;;;;;;18.23;100.00;101097.81;2130437;27;20084;-72
2022/11/23 01:11:07;;;;;;;6.07;1.40;;;;;;;18.26;100.00;101100.44;2124746;27;20185;-72
2022/11/23 01:12:31;;;;;;;8.85;2.13;;;;;;;18.27;100.00;101107.56;2110800;28;20128;-72
2022/11/23 01:13:53;;;;;;;6.63;1.33;;;;;;;18.29;100.00;101103.09;2115587;27;20058;-73
2022/11/23 01:15:15;;;;;;;8.05;1.85;;;;;;;18.31;100.00;101102.16;2128804;27;20057;-72
2022/11/23 01:16:40;;;;;;;7.50;1.50;;;;;;;18.35;100.00;101111.06;2115950;27;20058;-72
2022/11/23 01:18:01;;;;;;;11.07;1.50;;;;;;;18.35;100.00;101097.69;2125535;27;20126;-73
2022/11/23 01:19:25;;;;;;;5.95;1.30;;;;;;;18.36;100.00;101099.47;2120072;27;20077;-73
2022/11/23 01:20:46;;;;;;;6.47;1.92;;;;;;;18.40;100.00;101100.31;2124531;27;20047;-73
2022/11/23 01:22:09;;;;;;;15.00;2.40;;;;;;;18.43;100.00;101108.31;2120193;27;20058;-73
2022/11/23 01:23:30;;;;;;;8.57;1.30;;;;;;;18.44;100.00;101104.72;2125624;27;20142;-72
2022/11/23 01:24:53;;;;;;;7.97;1.73;;;;;;;18.45;100.00;101101.13;2119239;27;20051;-73
2022/11/23 01:26:15;;;;;;;9.65;1.70;;;;;;;18.46;100.00;101097.56;2117770;27;20075;-73
2022/11/23 01:27:37;;;;;;;7.88;1.40;;;;;;;18.48;100.00;101099.31;2114667;27;20318;-72
2022/11/23 01:29:00;;;;;;;9.18;1.80;;;;;;;18.49;100.00;101093.09;2117364;27;20095;-72
2022/11/23 01:30:21;;;;;;;5.70;1.00;;;;;;;18.51;100.00;101088.56;2126283;27;20376;-72
2022/11/23 01:31:45;;;;;;;8.57;1.70;;;;;;;18.52;100.00;101086.78;2129399;27;20260;-73
2022/11/23 01:33:09;;;;;;;7.55;1.10;;;;;;;18.53;100.00;101086.78;2128160;27;20042;-72
2022/11/23 01:34:33;;;;;;;6.78;0.90;;;;;;;18.53;100.00;101078.75;2119920;27;20106;-72
2022/11/23 01:35:55;;;;;;;5.03;0.80;;;;;;;18.50;100.00;101078.81;2120624;27;20043;-72
2022/11/23 01:37:18;;;;;;;8.02;1.00;;;;;;;18.48;100.00;101083.28;2117048;27;20031;-72
2022/11/23 01:38:40;;;;;;;6.15;1.20;;;;;;;18.46;100.00;101073.50;2128239;27;20589;-73
2022/11/23 01:40:02;;;;;;;13.18;1.83;;;;;;;18.45;100.00;101080.63;2120320;27;20602;-72
2022/11/23 01:41:27;;;;;;;5.32;0.90;;;;;;;18.44;100.00;101072.66;2125666;27;20042;-72
2022/11/23 01:42:56;;;;;;;9.88;1.50;;;;;;;18.45;100.00;101080.63;2119458;27;20055;-72
2022/11/23 01:44:27;;;;;;;9.18;1.58;;;;;;;18.44;100.00;101086.91;2127413;27;20035;-73
2022/11/23 01:45:58;;;;;;;11.85;1.80;;;;;;;18.43;100.00;101085.13;2121291;27;20051;-73
2022/11/23 01:47:19;;;;;;;7.10;1.92;;;;;;;18.44;100.00;101086.91;2128070;27;20534;-73
2022/11/23 01:48:45;;;;;;;6.10;1.67;;;;;;;18.43;100.00;101090.47;2130426;27;20092;-73
2022/11/23 01:50:08;;;;;;;7.07;1.13;;;;;;;18.45;100.00;101087.75;2116379;27;20075;-73
2022/11/23 01:51:36;;;;;;;14.25;1.38;;;;;;;18.45;100.00;101087.75;2117781;27;20043;-72
2022/11/23 01:52:58;;;;;;;7.05;0.90;;;;;;;18.42;100.00;101082.47;2103414;28;20044;-73
2022/11/23 01:54:27;;;;;;;8.20;1.05;;;;;;;18.38;100.00;101070.06;2118022;27;20046;-72
2022/11/23 01:55:51;;;;;;;7.03;1.00;;;;;;;18.33;100.00;101070.97;2113868;27;20341;-73
2022/11/23 01:57:19;;;;;;;8.63;1.20;;;;;;;18.30;100.00;101054.09;2109999;28;20059;-73
2022/11/23 01:58:46;;;;;;;6.75;0.80;;;;;;;18.28;100.00;101062.13;2110265;28;20047;-72
2022/11/23 02:00:09;;;;;;;5.20;1.42;;;;;;;18.26;100.00;101055.00;2121568;27;20459;-72
2022/11/23 02:01:38;;;;;;;4.15;0.77;;;;;;;18.24;100.00;101055.06;2122322;27;20039;-72
2022/11/23 02:03:04;;;;;;;7.32;0.95;;;;;;;18.24;100.00;101044.38;2119128;27;20035;-73
2022/11/23 02:04:29;;;;;;;6.00;0.98;;;;;;;18.21;100.00;101059.53;2126562;27;20043;-72
2022/11/23 02:05:59;;;;;;;5.80;0.88;;;;;;;18.12;100.00;101049.81;2114053;28;20036;-72
2022/11/23 02:07:23;;;;;;;7.88;1.48;;;;;;;18.03;100.00;101051.72;2120674;27;20050;-72
2022/11/23 02:08:48;;;;;;;6.43;1.02;;;;;;;17.93;100.00;101038.44;2123877;27;20047;-71
2022/11/23 02:10:09;;;;;;;6.65;1.40;;;;;;;17.85;100.00;101036.75;2118549;27;20069;-71
2022/11/23 02:11:32;;;;;;;12.52;2.25;;;;;;;17.76;100.00;101028.84;2122780;27;20143;-71
2022/11/23 02:12:54;;;;;;;11.00;1.50;;;;;;;17.68;100.00;101034.25;2119904;27;20046;-71
2022/11/23 02:14:16;;;;;;;5.50;0.90;;;;;;;17.62;100.00;101028.06;2114492;27;20092;-71
2022/11/23 02:15:38;;;;;;;6.60;1.00;;;;;;;17.59;100.00;101023.59;2125621;27;20511;-71
2022/11/23 02:17:01;;;;;;;;;;;;;;;17.53;100.00;101027.22;2112400;28;20032;-71
2022/11/23 02:18:27;;;;;;;7.18;0.80;;;;;;;17.51;100.00;101026.34;2133441;27;19972;-71
2022/11/23 02:19:56;;;;;;;7.43;2.15;;;;;;;17.50;100.00;101034.38;2116390;27;20131;-71
2022/11/23 02:21:23;;;;;;;6.63;1.02;;;;;;;17.46;100.00;101033.50;2115097;27;20681;-72
2022/11/23 02:22:57;;;;;;;6.32;1.23;;;;;;;17.47;100.00;101039.72;2117884;27;20486;-71
2022/11/23 02:24:26;;;;;;;9.55;1.40;;;;;;;17.43;100.00;101038.00;2120845;27;20130;-72
2022/11/23 02:25:57;;;;;;;15.75;1.90;;;;;;;17.39;100.00;101028.25;2137616;27;20050;-71
2022/11/23 02:27:20;;;;;;;8.13;1.38;;;;;;;17.36;100.00;101034.47;2113820;28;20101;-71
2022/11/23 02:28:47;;;;;;;8.63;1.88;;;;;;;17.35;100.00;101040.72;2117069;27;20491;-71
2022/11/23 02:30:12;;;;;;;10.82;2.15;;;;;;;17.36;100.00;101036.25;2125444;27;20071;-71
2022/11/23 02:31:33;;;;;;;7.97;1.50;;;;;;;17.35;100.00;101037.16;2119949;27;20051;-71
2022/11/23 02:32:57;;;;;;;10.40;1.67;;;;;;;17.36;100.00;101036.25;2128245;27;20050;-71
2022/11/23 02:34:21;;;;;;;7.20;1.38;;;;;;;17.37;100.00;101043.38;2114005;28;20046;-71
2022/11/23 02:35:48;;;;;;;16.45;3.67;;;;;;;17.38;100.00;101043.38;2128445;27;20131;-71
2022/11/23 02:37:12;;;;;;;11.68;2.15;;;;;;;17.41;100.00;101046.00;2113890;28;20146;-72
2022/11/23 02:38:34;;;;;;;9.07;1.83;;;;;;;17.43;100.00;101041.53;2126367;27;20081;-72
2022/11/23 02:39:59;;;;;;;8.18;2.10;;;;;;;17.46;100.00;101049.50;2122221;27;20105;-71
2022/11/23 02:41:22;;;;;;;8.77;2.28;;;;;;;17.51;100.00;101053.06;2128643;27;20142;-71
2022/11/23 02:42:45;;;;;;;11.13;2.42;;;;;;;17.53;100.00;101050.34;2114003;28;20111;-71
2022/11/23 02:44:13;;;;;;;8.70;1.90;;;;;;;17.57;100.00;101045.88;2119569;27;20058;-72
2022/11/23 02:45:40;;;;;;;6.97;1.65;;;;;;;17.58;100.00;101039.66;2110160;28;20043;-71
2022/11/23 02:47:01;;;;;;;7.40;1.90;;;;;;;17.59;100.00;101047.63;2124766;27;20529;-71
2022/11/23 02:48:24;;;;;;;10.75;1.73;;;;;;;17.60;100.00;101035.16;2119585;27;20039;-71
2022/11/23 02:49:47;;;;;;;10.85;1.83;;;;;;;17.61;100.00;101039.63;2117009;27;20059;-71
2022/11/23 02:51:09;;;;;;;12.07;1.67;;;;;;;17.61;100.00;101040.53;2125840;27;20068;-71
2022/11/23 02:52:31;;;;;;;10.73;1.55;;;;;;;17.61;100.00;101037.84;2128183;27;20046;-71
2022/11/23 02:53:53;;;;;;;5.72;1.52;;;;;;;17.61;100.00;101043.19;2127095;27;20042;-71
2022/11/23 02:55:16;;;;;;;12.63;2.65;;;;;;;17.61;100.00;101037.84;2128336;27;20050;-70
2022/11/23 02:56:40;;;;;;;10.95;2.00;;;;;;;17.61;100.00;101035.19;2127858;27;20542;-71
2022/11/23 02:58:05;;;;;;;13.18;2.53;;;;;;;17.63;100.00;101024.50;2128168;27;20051;-70
2022/11/23 02:59:29;;;;;;;11.55;2.38;;;;;;;17.63;100.00;101029.84;2123363;27;20539;-71
2022/11/23 03:00:51;;;;;;;9.90;2.08;;;;;;;17.63;100.00;101024.50;2117944;27;20525;-71
2022/11/23 03:02:14;;;;;;;11.00;1.75;;;;;;;17.62;100.00;101025.41;2125365;27;20047;-71
2022/11/23 03:03:37;;;;;;;9.95;2.17;;;;;;;17.60;100.00;101012.03;2119105;27;20039;-71
2022/11/23 03:05:00;;;;;;;7.68;1.25;;;;;;;17.61;100.00;101003.16;2119725;27;20035;-71
2022/11/23 03:06:23;;;;;;;7.88;1.40;;;;;;;17.61;100.00;101005.81;2118982;27;20380;-71
2022/11/23 03:07:45;;;;;;;10.98;2.17;;;;;;;17.62;100.00;101007.59;2115391;27;20043;-71
2022/11/23 03:09:08;;;;;;;8.02;1.60;;;;;;;17.62;100.00;101014.72;2107887;28;20475;-71
2022/11/23 03:10:30;;;;;;;9.00;1.73;;;;;;;17.62;100.00;101017.38;2111233;27;20491;-72
2022/11/23 03:11:55;;;;;;;14.25;2.28;;;;;;;17.63;100.00;101009.38;2116834;27;20054;-72
2022/11/23 03:13:19;;;;;;;9.85;2.30;;;;;;;17.64;100.00;101010.25;2117688;27;20083;-71
2022/11/23 03:14:42;;;;;;;8.43;1.50;;;;;;;17.65;100.00;101015.59;2119061;27;20058;-72
2022/11/23 03:16:05;;;;;;;7.90;1.92;;;;;;;17.66;100.00;101013.78;2119757;27;20051;-72
2022/11/23 03:17:28;;;;;;;5.15;1.35;;;;;;;17.66;100.00;101011.09;2108270;28;20111;-72
2022/11/23 03:18:50;;;;;;;5.22;1.50;;;;;;;17.67;100.00;101016.44;2123327;27;20035;-72
2022/11/23 03:20:14;;;;;;;5.72;1.30;;;;;;;17.69;100.00;101024.44;2127586;27;20046;-72
2022/11/23 03:21:39;;;;;;;6.95;1.60;;;;;;;17.69;100.00;101020.00;2119793;27;20590;-72
2022/11/23 03:23:03;;;;;;;8.45;1.58;;;;;;;17.72;100.00;101032.44;2116668;27;20604;-72
2022/11/23 03:24:27;;;;;;;7.93;1.75;;;;;;;17.72;100.00;101011.06;2124664;27;20498;-72
2022/11/23 03:25:56;;;;;;;6.80;1.70;;;;;;;17.73;100.00;101023.50;2116684;27;20047;-72
2022/11/23 03:27:21;;;;;;;6.53;1.45;;;;;;;17.75;100.00;101024.38;2111722;28;20031;-72
2022/11/23 03:28:43;;;;;;;11.05;1.70;;;;;;;17.78;100.00;101013.69;2116754;27;20043;-73
2022/11/23 03:30:08;;;;;;;5.82;1.50;;;;;;;17.78;100.00;100998.56;2114447;27;20559;-72
2022/11/23 03:31:29;;;;;;;14.25;1.90;;;;;;;17.80;100.00;100993.16;2125379;27;20042;-72
2022/11/23 03:32:52;;;;;;;10.32;2.45;;;;;;;17.78;100.00;100998.56;2126534;27;20031;-72
2022/11/23 03:34:14;;;;;;;6.28;1.58;;;;;;;17.75;100.00;101003.03;2119088;27;20054;-71
2022/11/23 03:35:37;;;;;;;12.57;1.90;;;;;;;17.67;100.00;101007.53;2116486;27;20139;-71
2022/11/23 03:37:27;;;;;;;9.07;1.45;;;;;;;17.57;100.00;100997.81;2128953;27;20053;-72
2022/11/23 03:38:48;;;;;;;9.35;1.50;;;;;;;17.51;100.00;100999.66;2119134;27;20035;-73
2022/11/23 03:40:41;;;;;;;10.43;1.58;;;;;;;17.41;100.00;101000.63;2121049;27;20516;-73
2022/11/23 03:42:28;;;;;;;9.20;1.80;;;;;;;17.36;100.00;100999.78;2119959;27;20058;-74
2022/11/23 03:43:50;;;;;;;8.15;1.90;;;;;;;17.33;100.00;100996.25;2126724;27;20081;-75
2022/11/23 03:45:13;;;;;;;4.47;1.33;;;;;;;17.30;100.00;100994.50;2118838;27;20054;-76
2022/11/23 03:46:35;;;;;;;8.07;1.40;;;;;;;17.27;100.00;100999.84;2127767;27;20057;-76
2022/11/23 03:47:58;;;;;;;8.35;1.63;;;;;;;17.23;100.00;100997.22;2118329;27;20070;-76
2022/11/23 03:49:20;;;;;;;7.85;1.33;;;;;;;17.20;100.00;100999.94;2119198;27;20444;-76
2022/11/23 03:50:43;;;;;;;6.38;1.75;;;;;;;17.16;100.00;101001.72;2125163;27;20075;-76
2022/11/23 03:52:05;;;;;;;5.45;1.45;;;;;;;17.12;100.00;101010.66;2114200;27;20051;-76
2022/11/23 03:53:28;;;;;;;9.73;1.38;;;;;;;17.08;100.00;101008.88;2118839;27;20070;-77
2022/11/23 03:54:50;;;;;;;5.18;1.38;;;;;;;17.05;100.00;101008.94;2114250;27;20096;-76
2022/11/23 03:56:12;;;;;;;14.23;1.83;;;;;;;17.05;100.00;101019.59;2111747;27;20555;-75
2022/11/23 03:57:40;;;;;;;5.70;1.27;;;;;;;17.06;100.00;101021.38;2116773;27;20051;-76
2022/11/23 03:59:01;;;;;;;8.90;1.63;;;;;;;17.06;100.00;101011.59;2116211;27;20495;-76
2022/11/23 04:00:24;;;;;;;9.55;2.08;;;;;;;17.09;100.00;101011.56;2118438;27;20050;-75
2022/11/23 04:01:45;;;;;;;7.25;1.40;;;;;;;17.11;100.00;101014.22;2125144;27;20039;-75
2022/11/23 04:03:15;;;;;;;10.82;2.15;;;;;;;17.14;100.00;101022.19;2126293;27;20065;-74
2022/11/23 04:04:56;;;;;;;9.27;1.50;;;;;;;17.12;100.00;101022.22;2129949;27;20043;-75
2022/11/23 04:06:58;;;;;;;7.40;1.73;;;;;;;17.07;100.00;101025.78;2104411;28;20050;-75
2022/11/23 04:08:25;;;;;;;8.70;1.55;;;;;;;17.06;100.00;101034.72;2093934;28;20098;-75
2022/11/23 04:09:49;;;;;;;6.75;1.27;;;;;;;17.06;100.00;101027.59;2107165;28;20035;-75
2022/11/23 04:11:18;;;;;;;14.02;2.03;;;;;;;17.07;100.00;101039.13;2103417;28;20060;-74
2022/11/23 04:12:46;;;;;;;10.82;1.73;;;;;;;17.06;100.00;101032.94;2113299;28;20047;-74
2022/11/23 04:14:08;;;;;;;13.63;2.72;;;;;;;17.07;100.00;101036.44;2116548;27;20047;-74
2022/11/23 04:15:30;;;;;;;8.35;1.70;;;;;;;17.04;100.00;101045.38;2113281;27;20118;-74
2022/11/23 04:16:54;;;;;;;7.75;1.92;;;;;;;17.05;100.00;101032.94;2108324;28;20071;-75
2022/11/23 04:18:16;;;;;;;11.68;2.35;;;;;;;17.06;100.00;101048.06;2116272;27;20054;-74
2022/11/23 04:19:39;;;;;;;4.32;1.50;;;;;;;17.06;100.00;101051.59;2118956;28;20099;-75
2022/11/23 04:21:01;;;;;;;9.10;1.55;;;;;;;17.05;100.00;101051.59;2119218;27;20413;-76
2022/11/23 04:22:22;;;;;;;3.75;1.35;;;;;;;17.02;100.00;101048.94;2125748;27;20039;-76
2022/11/23 04:23:45;;;;;;;9.50;1.88;;;;;;;16.97;100.00;101038.31;2117318;27;20047;-76
2022/11/23 04:25:10;;;;;;;5.47;1.80;;;;;;;16.92;100.00;101048.13;2113380;28;20051;-75
2022/11/23 04:26:32;;;;;;;6.78;1.65;;;;;;;16.90;100.00;101046.34;2119959;27;20461;-76
2022/11/23 04:27:56;;;;;;;7.97;1.40;;;;;;;16.88;100.00;101033.03;2118500;28;20046;-76
2022/11/23 04:29:18;;;;;;;9.27;1.70;;;;;;;16.87;100.00;101038.38;2119328;28;20050;-75
2022/11/23 04:30:47;;;;;;;5.85;1.65;;;;;;;16.87;100.00;101047.25;2126075;27;20522;-76
2022/11/23 04:32:08;;;;;;;6.80;1.42;;;;;;;16.87;100.00;101052.59;2118835;28;20058;-76
2022/11/23 04:33:32;;;;;;;13.85;1.52;;;;;;;16.89;100.00;101052.56;2116686;28;20185;-75
2022/11/23 04:34:53;;;;;;;4.38;1.55;;;;;;;16.90;100.00;101049.91;2115037;28;20418;-75
2022/11/23 04:36:16;;;;;;;;;;;;;;;16.89;100.00;101060.56;2116816;28;20047;-76
2022/11/23 04:37:38;;;;;;;7.05;1.42;;;;;;;16.92;100.00;101065.91;2124540;27;20010;-76
2022/11/23 04:39:02;;;;;;;6.22;1.67;;;;;;;16.94;100.00;101057.00;2118113;28;20039;-76
2022/11/23 04:40:32;;;;;;;12.70;2.38;;;;;;;16.97;100.00;101058.75;2119495;28;20038;-75
2022/11/23 04:41:57;;;;;;;9.25;1.35;;;;;;;17.00;100.00;101070.28;2119716;28;20039;-76
2022/11/23 04:43:21;;;;;;;7.35;1.25;;;;;;;17.03;100.00;101058.72;2107568;28;20586;-76
2022/11/23 04:44:43;;;;;;;6.20;1.38;;;;;;;17.05;100.00;101057.84;2124643;27;20062;-76
2022/11/23 04:46:06;;;;;;;8.38;1.85;;;;;;;17.07;100.00;101052.47;2127702;27;20057;-76
2022/11/23 04:47:28;;;;;;;8.45;1.80;;;;;;;17.10;100.00;101063.13;2125634;27;20066;-76
2022/11/23 04:48:54;;;;;;;9.82;1.65;;;;;;;17.10;100.00;101055.13;2119243;28;20573;-76
2022/11/23 04:50:16;;;;;;;9.27;1.50;;;;;;;17.11;100.00;101044.44;2124848;27;20114;-75
2022/11/23 04:51:44;;;;;;;7.55;1.48;;;;;;;17.13;100.00;101044.44;2121386;28;20070;-76
2022/11/23 04:53:07;;;;;;;10.82;1.98;;;;;;;17.16;100.00;101035.53;2116242;28;20054;-75
2022/11/23 04:54:34;;;;;;;7.90;1.50;;;;;;;17.17;100.00;101024.84;2115060;28;20063;-76
2022/11/23 04:56:00;;;;;;;7.05;1.73;;;;;;;17.18;100.00;101025.72;2116708;28;20073;-75
2022/11/23 04:57:21;;;;;;;9.05;1.40;;;;;;;17.20;100.00;101027.47;2124669;27;20078;-75
2022/11/23 04:58:48;;;;;;;7.00;1.60;;;;;;;17.19;100.00;101023.06;2119113;28;20077;-75
2022/11/23 05:00:11;;;;;;;7.97;1.75;;;;;;;17.19;100.00;101019.50;2122460;27;20045;-75
2022/11/23 05:01:33;;;;;;;7.57;1.20;;;;;;;17.17;100.00;101018.63;2117626;28;20953;-76
2022/11/23 05:03:13;;;;;;;7.00;1.80;;;;;;;17.10;100.00;101012.44;2128211;27;20436;-76
2022/11/23 05:04:37;;;;;;;4.13;1.20;;;;;;;17.06;100.00;101008.03;2118679;28;20148;-75
2022/11/23 05:06:01;;;;;;;3.90;1.02;;;;;;;17.04;100.00;101007.16;2119748;27;20051;-75
2022/11/23 05:07:31;;;;;;;5.47;0.90;;;;;;;17.02;100.00;100992.94;2111599;28;20503;-75
2022/11/23 05:08:57;;;;;;;5.85;1.40;;;;;;;17.00;100.00;100994.75;2114666;28;20141;-76
2022/11/23 05:10:51;;;;;;;9.23;1.67;;;;;;;16.98;100.00;100984.06;2118411;27;20456;-76
2022/11/23 05:12:15;;;;;;;7.70;1.30;;;;;;;16.99;100.00;100974.28;2126174;27;20039;-76
2022/11/23 05:13:37;;;;;;;5.63;0.98;;;;;;;16.99;100.00;100960.97;2121593;28;20044;-76
2022/11/23 05:15:00;;;;;;;3.97;0.88;;;;;;;17.00;100.00;100966.25;2125094;27;20043;-77
2022/11/23 05:16:29;;;;;;;5.57;1.25;;;;;;;17.01;100.00;100960.03;2117342;28;20134;-76
2022/11/23 05:17:51;;;;;;;4.63;1.00;;;;;;;17.05;100.00;100966.25;2114845;28;20055;-75
2022/11/23 05:19:20;;;;;;;4.80;1.10;;;;;;;17.07;100.00;100962.66;2119274;28;20055;-75
2022/11/23 05:20:42;;;;;;;6.82;1.08;;;;;;;17.11;100.00;100968.88;2116070;28;20043;-75
2022/11/23 05:22:05;;;;;;;10.70;1.98;;;;;;;17.14;100.00;100977.72;2111444;28;20044;-75
2022/11/23 05:23:30;;;;;;;6.07;1.20;;;;;;;17.16;100.00;100975.03;2110726;28;20392;-75
2022/11/23 05:24:53;;;;;;;8.50;1.73;;;;;;;17.17;100.00;100982.16;2107914;28;20147;-76
2022/11/23 05:26:19;;;;;;;5.68;1.20;;;;;;;17.20;100.00;100979.44;2124208;27;20050;-76
2022/11/23 05:27:41;;;;;;;7.47;1.30;;;;;;;17.21;100.00;100975.88;2112901;28;20127;-74
2022/11/23 05:29:04;;;;;;;8.13;1.77;;;;;;;17.24;100.00;100978.53;2122649;27;20125;-75
2022/11/23 05:30:28;;;;;;;7.88;2.25;;;;;;;17.25;100.00;100974.97;2109822;28;20574;-75
2022/11/23 05:31:51;;;;;;;11.70;4.63;;;;;;;17.23;100.00;100987.44;2114943;27;20055;-75
2022/11/23 05:33:14;;;;;;;9.20;4.13;;;;;;;17.22;100.00;100975.00;2117234;27;20062;-75
2022/11/23 05:34:38;;;;;;;9.85;3.85;;;;;;;17.20;100.00;100973.25;2118016;27;20057;-74
2022/11/23 05:36:02;;;;;;;11.30;7.40;;;;;;;17.13;100.00;100959.94;2117598;27;20039;-74
2022/11/23 05:37:33;;;;;;;10.55;4.65;;;;;;;17.13;100.00;100953.75;2112855;28;20052;-74
2022/11/23 05:38:56;;;;;;;9.55;3.20;;;;;;;17.10;100.00;100949.31;2120753;27;20376;-74
2022/11/23 05:40:26;;;;;;;5.53;1.27;;;;;;;17.05;100.00;100948.47;2120864;27;20058;-74
2022/11/23 05:41:51;;;;;;;3.00;0.85;;;;;;;17.01;100.00;100945.81;2126380;27;20043;-75
2022/11/23 05:43:26;;;;;;;5.20;0.90;;;;;;;16.94;100.00;100926.31;2127383;27;20042;-75
2022/11/23 05:44:47;;;;;;;2.25;0.77;;;;;;;16.91;100.00;100937.00;2120008;27;20081;-75
2022/11/23 05:46:18;;;;;;;4.65;0.63;;;;;;;16.83;100.00;100928.19;2120323;27;20050;-75
2022/11/23 05:47:41;;;;;;;7.03;0.85;;;;;;;16.83;100.00;100929.94;2109437;28;20039;-75
2022/11/23 05:49:13;;;;;;;4.13;0.82;;;;;;;16.80;100.00;100911.34;2111761;28;20100;-74
2022/11/23 05:50:35;;;;;;;3.75;0.82;;;;;;;16.76;100.00;100925.56;2109096;28;20432;-76
2022/11/23 05:52:33;;;;;;;3.13;0.80;;;;;;;16.74;100.00;100931.78;2123649;27;20038;-75
2022/11/23 05:53:55;;;;;;;4.60;0.80;;;;;;;16.76;100.00;100945.09;2119550;27;20055;-75
2022/11/23 05:55:34;;;;;;;6.00;0.55;;;;;;;16.72;100.00;100944.25;2121333;27;20045;-75
2022/11/23 05:56:57;;;;;;;7.28;2.30;;;;;;;16.74;100.00;100949.56;2125763;27;20099;-76
2022/11/23 05:58:30;;;;;;;3.30;0.70;;;;;;;16.77;100.00;100938.88;2129592;27;20043;-76
2022/11/23 05:59:52;;;;;;;6.38;0.98;;;;;;;16.81;100.00;100939.75;2114281;27;20046;-75
2022/11/23 06:01:20;;;;;;;1.63;0.47;;;;;;;16.83;100.00;100938.84;2110360;27;20048;-76
2022/11/23 06:02:41;;;;;;;3.55;0.55;;;;;;;16.87;100.00;100931.72;2117684;27;20050;-75
2022/11/23 06:04:06;;;;;;;3.47;0.80;;;;;;;16.90;100.00;100926.34;2117581;27;20055;-75
2022/11/23 06:05:34;;;;;;;8.48;1.05;;;;;;;16.92;100.00;100929.91;2118498;27;20077;-75
2022/11/23 06:06:59;;;;;;;2.97;0.50;;;;;;;16.96;100.00;100918.28;2108832;28;20147;-75
2022/11/23 06:08:23;;;;;;;4.55;0.43;;;;;;;16.99;100.00;100911.19;2112030;28;20567;-75
2022/11/23 06:09:45;;;;;;;3.67;0.70;;;;;;;17.04;100.00;100916.47;2123948;27;20088;-75
2022/11/23 06:11:07;;;;;;;3.22;0.70;;;;;;;17.07;100.00;100916.41;2119886;27;20043;-75
2022/11/23 06:12:30;;;;;;;3.42;1.23;;;;;;;17.09;100.00;100920.84;2116068;27;20142;-75
2022/11/23 06:13:54;;;;;;;5.63;2.40;;;;;;;17.11;100.00;100926.19;2109904;27;20068;-74
2022/11/23 06:15:17;;;;;;;10.70;4.60;;;;;;;17.14;100.00;100934.13;2119403;27;20150;-75
2022/11/23 06:16:42;;;;;;;9.77;6.72;;;;;;;17.17;100.00;100923.47;2114636;27;20038;-74
2022/11/23 06:18:13;;;;;;;16.80;9.63;;;;;;;17.18;100.00;100930.56;2118755;27;20067;-74
2022/11/23 06:19:42;;;;;;;17.23;12.15;;;;;;;17.22;100.00;100918.97;2123980;27;20511;-75
2022/11/23 06:21:06;;;;;;;14.70;10.38;;;;;;;17.27;100.00;100919.78;2116506;27;20515;-75
2022/11/23 06:22:29;;;;;;;11.23;4.15;;;;;;;17.31;100.00;100918.00;2113055;27;20490;-75
2022/11/23 06:23:56;;;;;;;5.45;1.92;;;;;;;17.35;100.00;100920.63;2116832;27;20043;-75
2022/11/23 06:25:19;;;;;;;14.43;8.52;;;;;;;17.38;100.00;100922.38;2111517;27;20048;-74
2022/11/23 06:26:51;;;;;;;9.45;4.45;;;;;;;17.40;100.00;100916.09;2127909;27;20054;-75
2022/11/23 06:28:12;;;;;;;10.35;6.22;;;;;;;17.45;100.00;100935.66;2119923;27;20445;-74